createdAt,value
2019-02-20T00:00:35.294Z,9.23
2019-02-20T00:03:04.353Z,7.75
2019-02-20T00:05:32.998Z,11.57
2019-02-20T00:08:01.993Z,9.03
2019-02-20T00:10:30.933Z,8.00
2019-02-20T00:12:59.894Z,12.78
2019-02-20T00:15:28.631Z,15.03
2019-02-20T00:17:57.321Z,13.58
2019-02-20T00:20:28.404Z,12.75
2019-02-20T00:22:58.630Z,7.12
2019-02-20T00:25:27.289Z,13.68
2019-02-20T00:27:58.099Z,6.45
2019-02-20T00:30:27.094Z,7.92
2019-02-20T00:32:55.766Z,8.18
2019-02-20T00:35:24.428Z,7.08
2019-02-20T00:37:53.500Z,6.85
2019-02-20T00:40:22.184Z,5.78
2019-02-20T00:42:51.130Z,5.80
2019-02-20T00:45:30.466Z,5.45
2019-02-20T00:48:36.564Z,5.50
2019-02-20T00:51:32.147Z,5.75
2019-02-20T00:54:04.758Z,5.25
2019-02-20T00:56:33.722Z,4.87
2019-02-20T00:59:02.706Z,5.65
2019-02-20T01:01:31.361Z,5.40
2019-02-20T01:04:00.791Z,5.20
2019-02-20T01:06:29.533Z,5.40
2019-02-20T01:08:59.087Z,4.80
2019-02-20T01:11:27.818Z,5.08
2019-02-20T01:13:57.074Z,5.62
2019-02-20T01:16:25.997Z,4.80
2019-02-20T01:18:54.960Z,5.08
2019-02-20T01:21:24.188Z,12.03
2019-02-20T01:23:53.162Z,5.05
2019-02-20T01:26:21.836Z,5.50
2019-02-20T01:28:51.027Z,10.43
2019-02-20T01:31:20.046Z,32.40
2019-02-20T01:33:49.011Z,5.95
2019-02-20T01:36:17.695Z,6.15
2019-02-20T01:38:46.339Z,5.87
2019-02-20T01:41:15.003Z,6.03
2019-02-20T01:43:44.261Z,6.67
2019-02-20T01:46:12.928Z,6.97
2019-02-20T01:48:41.874Z,5.90
2019-02-20T01:51:10.536Z,7.42
2019-02-20T01:53:39.549Z,6.40
2019-02-20T01:56:08.569Z,7.12
2019-02-20T01:58:37.551Z,10.98
2019-02-20T02:01:06.316Z,6.92
2019-02-20T02:03:34.970Z,7.20
2019-02-20T02:06:03.639Z,6.97
2019-02-20T02:08:32.277Z,6.90
2019-02-20T02:11:01.447Z,7.42
2019-02-20T02:13:30.439Z,7.33
2019-02-20T02:15:59.131Z,8.15
2019-02-20T02:18:27.788Z,7.22
2019-02-20T02:20:56.453Z,8.30
2019-02-20T02:23:25.373Z,8.53
2019-02-20T02:25:54.033Z,9.73
2019-02-20T02:28:23.279Z,9.48
2019-02-20T02:30:52.362Z,9.38
2019-02-20T02:33:21.015Z,9.58
2019-02-20T02:35:50.365Z,9.08
2019-02-20T02:38:19.103Z,9.93
2019-02-20T02:40:47.946Z,9.70
2019-02-20T02:43:16.590Z,10.25
2019-02-20T02:45:45.310Z,10.72
2019-02-20T02:48:14.004Z,11.93
2019-02-20T02:50:42.696Z,11.70
2019-02-20T02:53:11.354Z,11.43
2019-02-20T02:55:40.361Z,11.60
2019-02-20T02:58:09.172Z,11.88
2019-02-20T03:00:38.148Z,15.30
2019-02-20T03:03:07.120Z,19.70
2019-02-20T03:05:35.781Z,10.63
2019-02-20T03:08:04.802Z,42.17
2019-02-20T03:10:33.717Z,15.83
2019-02-20T03:13:03.305Z,19.37
2019-02-20T03:15:32.044Z,19.37
2019-02-20T03:18:00.731Z,12.75
2019-02-20T03:20:29.660Z,17.12
2019-02-20T03:22:58.346Z,17.05
2019-02-20T03:25:27.344Z,14.05
2019-02-20T03:27:56.031Z,13.68
2019-02-20T03:30:24.713Z,13.95
2019-02-20T03:32:53.717Z,14.70
2019-02-20T03:35:22.387Z,14.68
2019-02-20T03:37:51.295Z,16.12
2019-02-20T03:40:19.963Z,13.78
2019-02-20T03:42:48.971Z,15.00
2019-02-20T03:45:17.632Z,14.80
2019-02-20T03:47:46.296Z,15.08
2019-02-20T03:50:17.407Z,15.40
2019-02-20T03:52:46.362Z,14.60
2019-02-20T03:55:15.087Z,15.25
2019-02-20T03:57:44.052Z,14.65
2019-02-20T04:00:13.183Z,15.35
2019-02-20T04:02:41.847Z,15.90
2019-02-20T04:05:10.518Z,15.40
2019-02-20T04:07:39.433Z,16.02
2019-02-20T04:10:09.132Z,14.43
2019-02-20T04:12:38.065Z,14.83
2019-02-20T04:15:07.017Z,15.00
2019-02-20T04:17:35.845Z,15.90
2019-02-20T04:20:05.707Z,14.83
2019-02-20T04:22:34.889Z,14.90
2019-02-20T04:25:03.541Z,16.30
2019-02-20T04:27:32.570Z,15.08
2019-02-20T04:30:01.544Z,14.87
2019-02-20T04:32:30.234Z,14.95
2019-02-20T04:34:59.159Z,15.25
2019-02-20T04:37:28.136Z,15.83
2019-02-20T04:39:56.866Z,14.73
2019-02-20T04:42:25.822Z,14.20
2019-02-20T04:44:54.506Z,13.13
2019-02-20T04:47:23.262Z,13.68
2019-02-20T04:49:51.928Z,13.72
2019-02-20T04:52:20.872Z,14.13
2019-02-20T04:54:49.768Z,13.62
2019-02-20T04:57:18.770Z,14.98
2019-02-20T04:59:50.251Z,14.73
2019-02-20T05:02:19.868Z,14.70
2019-02-20T05:04:48.553Z,15.95
2019-02-20T05:07:17.448Z,14.73
2019-02-20T05:09:46.108Z,16.05
2019-02-20T05:12:14.788Z,15.25
2019-02-20T05:14:43.478Z,15.83
2019-02-20T05:17:12.128Z,16.20
2019-02-20T05:19:41.051Z,14.53
2019-02-20T05:22:09.976Z,16.27
2019-02-20T05:24:39.150Z,15.43
2019-02-20T05:27:07.825Z,15.80
2019-02-20T05:29:38.701Z,15.72
2019-02-20T05:32:07.530Z,15.40
2019-02-20T05:34:36.188Z,15.30
2019-02-20T05:37:04.869Z,14.80
2019-02-20T05:39:33.795Z,15.45
2019-02-20T05:42:02.459Z,15.25
2019-02-20T05:44:31.386Z,15.50
2019-02-20T05:47:00.298Z,15.88
2019-02-20T05:49:29.872Z,16.00
2019-02-20T05:51:58.817Z,18.77
2019-02-20T05:54:34.053Z,18.90
2019-02-20T05:56:58.137Z,16.50
2019-02-20T05:59:26.834Z,16.45
2019-02-20T06:01:55.724Z,15.53
2019-02-20T06:04:24.406Z,14.33
2019-02-20T06:06:53.343Z,14.60
2019-02-20T06:09:22.009Z,14.30
2019-02-20T06:11:50.653Z,14.90
2019-02-20T06:14:19.580Z,14.47
2019-02-20T06:16:48.247Z,14.55
2019-02-20T06:19:17.163Z,15.00
2019-02-20T06:21:48.494Z,13.98
2019-02-20T06:24:18.715Z,14.75
2019-02-20T06:26:47.437Z,14.65
2019-02-20T06:29:19.691Z,14.07
2019-02-20T06:31:48.469Z,15.18
2019-02-20T06:34:18.225Z,14.15
2019-02-20T06:36:47.077Z,15.68
2019-02-20T06:39:16.359Z,13.72
2019-02-20T06:41:45.207Z,14.10
2019-02-20T06:44:14.503Z,13.98
2019-02-20T06:46:43.241Z,14.43
2019-02-20T06:49:14.366Z,13.68
2019-02-20T06:51:43.012Z,13.28
2019-02-20T06:54:11.682Z,13.35
2019-02-20T06:56:40.696Z,13.98
2019-02-20T06:59:09.429Z,20.37
2019-02-20T07:01:38.095Z,33.65
2019-02-20T07:04:06.821Z,18.17
2019-02-20T07:07:09.203Z,13.70
2019-02-20T07:10:15.078Z,15.20
2019-02-20T07:13:12.087Z,15.85
2019-02-20T07:16:27.396Z,18.23
2019-02-20T07:19:15.245Z,33.70
2019-02-20T07:22:21.564Z,15.48
2019-02-20T07:25:34.582Z,18.48
2019-02-20T07:28:40.193Z,25.32
2019-02-20T07:31:08.875Z,28.50
2019-02-20T07:33:37.601Z,25.30
2019-02-20T07:36:06.364Z,28.40
2019-02-20T07:38:35.043Z,207.83
2019-02-20T07:41:03.784Z,24.57
2019-02-20T07:43:32.722Z,14.10
2019-02-20T07:46:01.481Z,42.00
2019-02-20T07:48:30.169Z,14.15
2019-02-20T07:50:59.184Z,13.48
2019-02-20T07:53:27.854Z,14.45
2019-02-20T07:55:56.869Z,14.25
2019-02-20T07:58:25.856Z,13.50
2019-02-20T08:00:54.537Z,13.72
2019-02-20T08:03:23.549Z,13.68
2019-02-20T08:05:52.588Z,13.00
2019-02-20T08:08:21.257Z,13.55
2019-02-20T08:10:50.317Z,13.50
2019-02-20T08:13:19.477Z,13.32
2019-02-20T08:15:48.172Z,15.32
2019-02-20T08:18:16.829Z,13.15
2019-02-20T08:20:45.741Z,18.80
2019-02-20T08:23:14.755Z,13.22
2019-02-20T08:25:43.456Z,23.90
2019-02-20T08:28:12.124Z,13.32
2019-02-20T08:30:40.844Z,13.00
2019-02-20T08:33:09.514Z,38.88
2019-02-20T08:35:38.764Z,15.35
2019-02-20T08:38:07.450Z,12.75
2019-02-20T08:40:36.448Z,14.60
2019-02-20T08:43:05.410Z,12.90
2019-02-20T08:45:34.360Z,12.78
2019-02-20T08:48:03.053Z,15.00
2019-02-20T08:50:31.743Z,39.08
2019-02-20T08:53:00.428Z,13.43
2019-02-20T08:55:31.998Z,21.82
2019-02-20T08:57:59.720Z,13.70
2019-02-20T09:00:28.382Z,12.40
2019-02-20T09:02:57.060Z,11.95
2019-02-20T09:05:25.998Z,10.58
2019-02-20T09:07:54.678Z,11.10
2019-02-20T09:10:23.352Z,11.25
2019-02-20T09:12:52.288Z,10.65
2019-02-20T09:15:21.242Z,9.63
2019-02-20T09:17:50.574Z,10.90
2019-02-20T09:20:19.585Z,10.45
2019-02-20T09:22:48.279Z,12.73
2019-02-20T09:25:19.944Z,9.50
2019-02-20T09:27:47.622Z,10.32
2019-02-20T09:30:16.435Z,8.95
2019-02-20T09:32:45.132Z,10.32
2019-02-20T09:35:13.862Z,9.10
2019-02-20T09:37:42.638Z,10.40
2019-02-20T09:40:16.001Z,10.00
2019-02-20T09:42:46.268Z,10.20
2019-02-20T09:45:15.011Z,11.38
2019-02-20T09:47:43.697Z,13.08
2019-02-20T09:50:12.792Z,9.45
2019-02-20T09:52:41.406Z,8.10
2019-02-20T09:55:10.901Z,8.45
2019-02-20T09:57:39.568Z,9.50
2019-02-20T10:00:11.248Z,8.55
2019-02-20T10:02:39.928Z,10.28
2019-02-20T10:05:09.121Z,8.55
2019-02-20T10:07:37.790Z,7.15
2019-02-20T10:10:06.789Z,7.58
2019-02-20T10:12:35.437Z,8.65
2019-02-20T10:15:04.848Z,8.20
2019-02-20T10:17:33.840Z,8.93
2019-02-20T10:20:02.518Z,7.33
2019-02-20T10:22:31.520Z,8.60
2019-02-20T10:25:00.348Z,8.08
2019-02-20T10:27:29.329Z,8.98
2019-02-20T10:29:58.244Z,8.08
2019-02-20T10:32:27.497Z,6.83
2019-02-20T10:34:56.493Z,6.60
2019-02-20T10:37:25.418Z,6.40
2019-02-20T10:39:54.093Z,6.42
2019-02-20T10:42:22.766Z,5.70
2019-02-20T10:44:52.057Z,5.70
2019-02-20T10:47:20.736Z,5.67
2019-02-20T10:49:49.418Z,5.40
2019-02-20T10:52:18.071Z,6.17
2019-02-20T10:54:47.929Z,6.00
2019-02-20T10:57:16.637Z,5.05
2019-02-20T10:59:45.314Z,4.85
2019-02-20T11:02:14.416Z,5.17
2019-02-20T11:04:43.475Z,5.37
2019-02-20T11:07:12.670Z,7.12
2019-02-20T11:09:41.378Z,6.78
2019-02-20T11:12:10.049Z,7.85
2019-02-20T11:14:38.734Z,4.87
2019-02-20T11:17:07.410Z,5.10
2019-02-20T11:19:36.109Z,5.22
2019-02-20T11:22:04.861Z,6.95
2019-02-20T11:24:33.764Z,7.00
2019-02-20T11:27:02.511Z,6.35
2019-02-20T11:29:31.718Z,11.48
2019-02-20T11:32:00.669Z,6.85
2019-02-20T11:34:29.343Z,7.28
2019-02-20T11:36:58.353Z,6.37
2019-02-20T11:39:27.339Z,7.72
2019-02-20T11:41:56.019Z,5.58
2019-02-20T11:44:24.935Z,4.97
2019-02-20T11:46:53.621Z,4.10
2019-02-20T11:49:22.310Z,5.08
2019-02-20T11:51:50.990Z,4.30
2019-02-20T11:54:20.270Z,5.35
2019-02-20T11:56:49.489Z,5.67
2019-02-20T11:59:18.176Z,6.40
2019-02-20T12:01:46.881Z,4.40
2019-02-20T12:04:15.771Z,3.90
2019-02-20T12:06:44.716Z,4.75
2019-02-20T12:09:13.706Z,6.37
2019-02-20T12:11:42.623Z,3.70
2019-02-20T12:14:11.341Z,4.85
2019-02-20T12:16:40.021Z,3.98
2019-02-20T12:19:09.384Z,4.22
2019-02-20T12:21:38.087Z,4.40
2019-02-20T12:24:06.827Z,5.78
2019-02-20T12:26:35.549Z,5.28
2019-02-20T12:29:04.454Z,4.40
2019-02-20T12:31:33.473Z,4.65
2019-02-20T12:34:02.820Z,4.62
2019-02-20T12:36:31.815Z,5.25
2019-02-20T12:39:01.005Z,4.40
2019-02-20T12:41:30.330Z,4.47
2019-02-20T12:43:59.502Z,4.83
2019-02-20T12:46:28.279Z,4.42
2019-02-20T12:48:57.298Z,4.22
2019-02-20T12:51:25.997Z,4.50
2019-02-20T12:53:55.179Z,4.20
2019-02-20T12:56:24.183Z,4.10
2019-02-20T12:58:52.838Z,4.28
2019-02-20T13:01:21.522Z,4.10
2019-02-20T13:03:50.220Z,4.22
2019-02-20T13:06:18.979Z,3.62
2019-02-20T13:08:47.786Z,4.03
2019-02-20T13:11:16.471Z,4.05
2019-02-20T13:13:45.473Z,4.78
2019-02-20T13:16:14.463Z,4.17
2019-02-20T13:18:43.148Z,5.00
2019-02-20T13:21:11.837Z,5.03
2019-02-20T13:23:40.829Z,5.22
2019-02-20T13:26:10.023Z,5.17
2019-02-20T13:28:38.686Z,5.92
2019-02-20T13:31:07.449Z,6.97
2019-02-20T13:33:36.463Z,6.90
2019-02-20T13:36:05.615Z,7.55
2019-02-20T13:38:34.314Z,8.95
2019-02-20T13:41:03.110Z,6.78
2019-02-20T13:43:32.094Z,7.08
2019-02-20T13:46:01.024Z,10.58
2019-02-20T13:48:31.836Z,17.62
2019-02-20T13:51:00.584Z,10.18
2019-02-20T13:53:29.355Z,9.45
2019-02-20T13:55:58.099Z,11.93
2019-02-20T13:58:27.653Z,9.63
2019-02-20T14:00:56.640Z,10.30
2019-02-20T14:03:25.345Z,9.53
2019-02-20T14:05:54.069Z,10.10
2019-02-20T14:08:23.025Z,11.05
2019-02-20T14:10:51.710Z,11.90
2019-02-20T14:13:20.396Z,12.93
2019-02-20T14:15:49.169Z,11.55
2019-02-20T14:18:18.187Z,10.55
2019-02-20T14:20:47.155Z,12.05
2019-02-20T14:23:15.855Z,12.15
2019-02-20T14:25:45.247Z,16.02
2019-02-20T14:28:13.978Z,13.22
2019-02-20T14:30:43.328Z,10.63
2019-02-20T14:33:12.029Z,10.90
2019-02-20T14:35:40.735Z,12.10
2019-02-20T14:38:09.458Z,12.73
2019-02-20T14:40:38.469Z,10.20
2019-02-20T14:43:07.153Z,10.75
2019-02-20T14:45:36.286Z,10.80
2019-02-20T14:48:05.318Z,10.13
2019-02-20T14:50:34.332Z,9.50
2019-02-20T14:53:03.069Z,10.35
2019-02-20T14:55:32.025Z,10.18
2019-02-20T14:58:00.765Z,15.90
2019-02-20T15:00:29.803Z,10.63
2019-02-20T15:02:58.903Z,21.87
2019-02-20T15:05:27.621Z,10.93
2019-02-20T15:07:56.589Z,13.58
2019-02-20T15:10:25.581Z,15.45
2019-02-20T15:12:54.269Z,11.83
2019-02-20T15:15:22.955Z,16.73
2019-02-20T15:17:51.934Z,16.73
2019-02-20T15:20:20.707Z,16.62
2019-02-20T15:22:49.713Z,15.70
2019-02-20T15:25:18.425Z,12.07
2019-02-20T15:27:47.090Z,20.45
2019-02-20T15:30:16.178Z,13.85
2019-02-20T15:32:45.176Z,15.38
2019-02-20T15:35:14.681Z,14.78
2019-02-20T15:37:44.595Z,12.70
2019-02-20T15:40:13.652Z,12.65
2019-02-20T15:42:42.352Z,12.28
2019-02-20T15:45:11.877Z,12.28
2019-02-20T15:47:40.976Z,12.78
2019-02-20T15:50:10.828Z,12.50
2019-02-20T15:52:39.854Z,12.80
2019-02-20T15:55:08.788Z,14.23
2019-02-20T15:57:38.408Z,11.75
2019-02-20T16:00:09.230Z,12.82
2019-02-20T16:02:37.919Z,12.40
2019-02-20T16:05:07.577Z,13.60
2019-02-20T16:07:36.452Z,13.85
2019-02-20T16:10:07.233Z,13.78
2019-02-20T16:12:35.982Z,14.28
2019-02-20T16:15:04.937Z,17.12
2019-02-20T16:17:33.891Z,14.40
2019-02-20T16:20:02.605Z,14.38
2019-02-20T16:22:31.904Z,21.77
2019-02-20T16:25:00.889Z,15.68
2019-02-20T16:27:29.882Z,14.38
2019-02-20T16:29:58.897Z,15.55
2019-02-20T16:32:27.586Z,14.98
2019-02-20T16:34:56.359Z,14.87
2019-02-20T16:37:25.060Z,15.35
2019-02-20T16:39:53.751Z,14.10
2019-02-20T16:42:22.662Z,14.60
2019-02-20T16:44:51.586Z,15.05
2019-02-20T16:47:20.285Z,13.80
2019-02-20T16:49:49.210Z,15.53
2019-02-20T16:52:17.968Z,17.62
2019-02-20T16:54:47.184Z,16.37
2019-02-20T16:57:16.095Z,14.43
2019-02-20T16:59:45.038Z,15.65
2019-02-20T17:02:14.358Z,15.48
2019-02-20T17:04:43.046Z,15.55
2019-02-20T17:07:11.855Z,15.48
2019-02-20T17:09:40.523Z,15.60
2019-02-20T17:12:09.629Z,15.28
2019-02-20T17:14:38.797Z,15.58
2019-02-20T17:17:07.899Z,16.25
2019-02-20T17:19:37.125Z,15.90
2019-02-20T17:22:05.808Z,15.90
2019-02-20T17:24:34.719Z,15.53
2019-02-20T17:27:03.757Z,15.25
2019-02-20T17:29:32.492Z,15.68
2019-02-20T17:32:01.438Z,16.05
2019-02-20T17:34:30.125Z,16.70
2019-02-20T17:36:58.812Z,16.20
2019-02-20T17:39:27.819Z,16.37
2019-02-20T17:41:56.763Z,16.82
2019-02-20T17:44:26.189Z,17.37
2019-02-20T17:46:55.725Z,17.00
2019-02-20T17:49:24.398Z,16.80
2019-02-20T17:51:53.331Z,16.97
2019-02-20T17:54:22.006Z,16.77
2019-02-20T17:56:50.703Z,17.25
2019-02-20T17:59:19.392Z,17.02
2019-02-20T18:01:48.408Z,17.70
2019-02-20T18:04:17.321Z,17.32
2019-02-20T18:06:46.018Z,16.20
2019-02-20T18:09:15.162Z,16.85
2019-02-20T18:11:44.089Z,17.48
2019-02-20T18:14:13.066Z,17.70
2019-02-20T18:16:41.759Z,16.80
2019-02-20T18:19:10.908Z,17.45
2019-02-20T18:21:39.855Z,17.50
2019-02-20T18:24:08.606Z,17.95
2019-02-20T18:26:37.362Z,19.23
2019-02-20T18:29:06.137Z,20.32
2019-02-20T18:31:35.103Z,20.82
2019-02-20T18:34:05.143Z,17.55
2019-02-20T18:36:33.857Z,18.48
2019-02-20T18:39:04.710Z,18.95
2019-02-20T18:41:33.183Z,17.52
2019-02-20T18:44:02.325Z,20.30
2019-02-20T18:46:31.026Z,18.50
2019-02-20T18:49:00.642Z,19.85
2019-02-20T18:51:30.140Z,18.05
2019-02-20T18:53:58.802Z,19.35
2019-02-20T18:56:28.173Z,20.92
2019-02-20T18:58:56.907Z,26.17
2019-02-20T19:01:25.852Z,19.40
2019-02-20T19:03:56.716Z,21.45
2019-02-20T19:06:25.193Z,20.88
2019-02-20T19:09:05.316Z,19.98
2019-02-20T19:11:45.516Z,21.65
2019-02-20T19:14:41.955Z,20.70
2019-02-20T19:17:45.952Z,19.50
2019-02-20T19:20:24.556Z,19.90
2019-02-20T19:23:33.417Z,20.65
2019-02-20T19:26:24.995Z,21.40
2019-02-20T19:29:27.243Z,22.50
2019-02-20T19:32:38.796Z,20.92
2019-02-20T19:35:26.797Z,21.40
2019-02-20T19:38:38.751Z,21.27
2019-02-20T19:41:21.351Z,21.30
2019-02-20T19:44:13.762Z,21.93
2019-02-20T19:49:45.722Z,20.05
2019-02-20T19:52:58.322Z,21.02
2019-02-20T19:56:02.194Z,19.00
2019-02-20T19:59:09.205Z,19.73
2019-02-20T20:02:14.011Z,19.98
2019-02-20T20:05:25.943Z,19.45
2019-02-20T20:08:31.484Z,19.70
2019-02-20T20:11:44.404Z,20.25
2019-02-20T20:14:51.798Z,20.20
2019-02-20T20:20:48.420Z,26.77
2019-02-20T20:24:04.731Z,27.67
2019-02-20T20:27:09.533Z,29.35
2019-02-20T20:30:28.954Z,38.60
2019-02-20T20:33:17.533Z,39.33
2019-02-20T20:36:25.155Z,30.30
2019-02-20T20:39:36.739Z,48.65
2019-02-20T20:43:11.004Z,56.65
2019-02-20T20:45:50.194Z,38.30
2019-02-20T20:48:29.341Z,34.35
2019-02-20T20:51:41.844Z,39.50
2019-02-20T20:54:42.257Z,64.45
2019-02-20T20:57:22.221Z,81.87
2019-02-20T21:00:22.979Z,95.25
2019-02-20T21:03:05.201Z,39.80
2019-02-20T21:08:55.755Z,65.97
2019-02-20T21:11:40.713Z,73.83
2019-02-20T21:14:28.524Z,53.80
2019-02-20T21:17:34.349Z,52.93
2019-02-20T21:20:32.816Z,62.08
2019-02-20T21:23:29.602Z,66.12
2019-02-20T21:26:21.880Z,37.95
2019-02-20T21:29:01.572Z,45.38
2019-02-20T21:32:10.276Z,102.82
2019-02-20T21:35:07.368Z,144.57
2019-02-20T21:38:19.010Z,42.40
2019-02-20T21:40:53.288Z,51.83
2019-02-20T21:44:24.467Z,224.00
2019-02-20T21:47:07.235Z,92.45
2019-02-20T21:50:13.598Z,104.97
2019-02-20T21:53:29.734Z,78.40
2019-02-20T21:56:25.699Z,77.10
2019-02-20T21:59:39.137Z,66.60
2019-02-20T22:02:28.247Z,81.82
2019-02-20T22:05:24.992Z,44.70
2019-02-20T22:08:10.757Z,26.45
2019-02-20T22:11:24.339Z,60.03
2019-02-20T22:14:28.830Z,29.77
2019-02-20T22:17:34.787Z,39.03
2019-02-20T22:20:34.382Z,24.20
2019-02-20T22:23:50.307Z,26.93
2019-02-20T22:26:33.493Z,32.13
2019-02-20T22:29:19.887Z,31.73
2019-02-20T22:32:20.283Z,21.77
2019-02-20T22:35:02.169Z,36.80
2019-02-20T22:37:52.356Z,25.60
2019-02-20T22:41:14.310Z,48.25
2019-02-20T22:44:18.787Z,52.15
2019-02-20T22:47:17.694Z,38.38
2019-02-20T22:50:14.865Z,72.08
2019-02-20T22:53:08.442Z,29.45
2019-02-20T22:56:19.863Z,48.28
2019-02-20T22:59:42.198Z,65.35
2019-02-20T23:02:46.880Z,60.43
2019-02-20T23:05:49.554Z,68.10
2019-02-20T23:08:33.840Z,51.77
2019-02-20T23:11:31.010Z,134.63
2019-02-20T23:14:53.148Z,120.62
2019-02-20T23:17:21.881Z,141.37
2019-02-20T23:19:50.660Z,148.62
2019-02-20T23:22:19.486Z,55.43
2019-02-20T23:24:48.257Z,87.30
2019-02-20T23:27:16.981Z,62.73
2019-02-20T23:29:45.727Z,34.38
2019-02-20T23:32:14.475Z,29.67
2019-02-20T23:34:43.514Z,25.37
2019-02-20T23:37:12.288Z,22.93
2019-02-20T23:39:40.948Z,25.17
2019-02-20T23:42:11.147Z,21.05
2019-02-20T23:44:39.841Z,21.27
2019-02-20T23:47:08.781Z,87.92
2019-02-20T23:49:37.470Z,35.10
2019-02-20T23:52:06.268Z,32.73
2019-02-20T23:54:35.448Z,21.42
2019-02-20T23:57:04.460Z,27.02
2019-02-20T23:59:33.709Z,24.90
